createdAt,value
2024-01-20T13:37:07.173Z,22.6
2024-01-20T13:42:47.204Z,22.7
2024-01-20T13:48:26.109Z,22.8
2024-01-20T13:54:09.297Z,22.6
2024-01-20T14:00:02.540Z,22.6
2024-01-20T14:05:42.532Z,22.8
2024-01-20T14:11:21.910Z,22.4
2024-01-20T14:17:00.621Z,22.6
2024-01-20T14:22:42.978Z,22.7
2024-01-20T14:28:25.562Z,22.4
2024-01-20T14:34:05.312Z,22.6
2024-01-20T14:39:44.071Z,22.8
2024-01-20T14:45:07.407Z,22.7
2024-01-20T14:50:48.006Z,22.6
2024-01-20T14:56:26.952Z,22.3
2024-01-20T15:02:08.376Z,22.7
2024-01-20T15:07:51.230Z,23.8
2024-01-20T15:13:29.841Z,24.5
2024-01-20T15:19:11.134Z,24.9
2024-01-20T15:24:52.411Z,25.4
2024-01-20T15:30:31.784Z,25.9
2024-01-20T15:36:14.739Z,26.3
2024-01-20T15:41:55.178Z,26.5
2024-01-20T15:47:33.590Z,26.6
2024-01-20T15:53:13.971Z,26.7
2024-01-20T15:58:37.359Z,26.8
2024-01-20T16:04:16.946Z,26.9
2024-01-20T16:09:58.593Z,27
2024-01-20T16:15:39.579Z,27.1
2024-01-20T16:21:20.498Z,27.3
2024-01-20T16:26:46.019Z,27.6
2024-01-20T16:37:34.866Z,28.1
2024-01-20T16:43:16.095Z,28.4
2024-01-20T16:48:55.215Z,28.7
2024-01-20T16:54:26.627Z,28.9
2024-01-20T16:59:48.025Z,29.2
2024-01-20T17:05:16.159Z,29.3
2024-01-20T17:10:24.309Z,29.4
2024-01-20T17:15:47.457Z,29.4
2024-01-20T17:21:11.784Z,29.4
2024-01-20T17:26:50.981Z,29.6
2024-01-20T17:32:00.827Z,29.9
2024-01-20T17:37:42.719Z,29.9
2024-01-20T17:43:06.394Z,29.9
2024-01-20T17:48:45.932Z,29.9
2024-01-20T17:53:54.067Z,30.1
2024-01-20T17:59:17.165Z,30.3
2024-01-20T18:04:29.620Z,30.2
2024-01-20T18:09:54.475Z,30.1
2024-01-20T18:15:32.612Z,30.1
2024-01-20T18:21:12.720Z,30.3
2024-01-20T18:26:51.414Z,30.6
2024-01-20T18:32:32.767Z,30.8
2024-01-20T18:38:12.263Z,31
2024-01-20T18:43:51.338Z,31.1
2024-01-20T18:49:17.524Z,31.3
2024-01-20T18:54:41.010Z,31.3
2024-01-20T19:00:19.589Z,31.4
2024-01-20T19:05:59.115Z,31.4
2024-01-20T19:11:24.250Z,31.3
2024-01-20T19:16:49.210Z,31.4
2024-01-20T19:22:31.650Z,31.6
2024-01-20T19:28:26.568Z,31.6
2024-01-20T19:34:07.651Z,31.4
2024-01-20T19:39:31.710Z,31.3
2024-01-20T19:45:13.073Z,31.1
2024-01-20T19:50:53.021Z,31.1
2024-01-20T19:56:32.153Z,31.4
2024-01-20T20:02:14.084Z,31.6
2024-01-20T20:07:53.937Z,31.6
2024-01-20T20:13:33.245Z,31.6
2024-01-20T20:18:41.366Z,31.6
2024-01-20T20:24:20.814Z,31.6
2024-01-20T20:29:59.589Z,31.6
2024-01-20T20:36:04.071Z,31.6
2024-01-20T20:41:43.640Z,31.4
2024-01-20T20:47:22.920Z,31.4
2024-01-20T20:53:03.465Z,31.3
2024-01-20T20:58:44.010Z,31.1
2024-01-20T21:04:24.557Z,31.1
2024-01-20T21:09:32.613Z,31
2024-01-20T21:15:11.586Z,30.9
2024-01-20T21:20:36.858Z,30.6
2024-01-20T21:26:16.229Z,30.5
2024-01-20T21:31:56.057Z,30.3
2024-01-20T21:37:37.403Z,29.8
2024-01-20T21:43:15.465Z,29.4
2024-01-20T21:48:54.934Z,28.8
2024-01-20T21:54:34.390Z,28.3
2024-01-20T22:00:13.875Z,27.9
2024-01-20T22:05:53.516Z,27.6
2024-01-20T22:11:16.215Z,27.3
2024-01-20T22:16:54.977Z,27
2024-01-20T22:22:34.351Z,27.1
2024-01-20T22:28:12.790Z,27.3
2024-01-20T22:34:03.717Z,27.1
2024-01-20T22:39:43.828Z,26.7
2024-01-20T22:45:06.914Z,26.4
2024-01-20T22:50:47.745Z,26.1
2024-01-20T22:56:26.941Z,26
2024-01-20T23:02:06.465Z,26.3
2024-01-20T23:07:46.072Z,26.3
2024-01-20T23:13:27.493Z,26.1
2024-01-20T23:19:06.327Z,25.7
2024-01-20T23:24:46.337Z,25.5
2024-01-20T23:30:24.993Z,25.3
2024-01-20T23:36:04.689Z,25.3
2024-01-20T23:41:44.526Z,25.6
2024-01-20T23:47:23.403Z,25.6
2024-01-20T23:52:47.671Z,25.3
2024-01-20T23:58:10.887Z,25.1
